sensor_id;sensor_type;location;lat;lon;timestamp;P1;durP1;ratioP1;P2;durP2;ratioP2
21233;SDS011;10774;42.178;26.578;2023-01-29T00:02:11;15.82;;;11.55;;
21233;SDS011;10774;42.178;26.578;2023-01-29T00:04:37;16.00;;;11.55;;
21233;SDS011;10774;42.178;26.578;2023-01-29T00:07:02;17.92;;;12.05;;
21233;SDS011;10774;42.178;26.578;2023-01-29T00:09:28;18.13;;;12.43;;
21233;SDS011;10774;42.178;26.578;2023-01-29T00:11:53;17.48;;;12.90;;
21233;SDS011;10774;42.178;26.578;2023-01-29T00:14:19;17.98;;;11.93;;
21233;SDS011;10774;42.178;26.578;2023-01-29T00:16:44;18.33;;;12.40;;
21233;SDS011;10774;42.178;26.578;2023-01-29T00:19:09;18.50;;;12.90;;
21233;SDS011;10774;42.178;26.578;2023-01-29T00:21:35;15.93;;;12.32;;
21233;SDS011;10774;42.178;26.578;2023-01-29T00:24:01;18.90;;;12.60;;
21233;SDS011;10774;42.178;26.578;2023-01-29T00:26:26;19.30;;;12.80;;
21233;SDS011;10774;42.178;26.578;2023-01-29T00:28:52;15.07;;;11.63;;
21233;SDS011;10774;42.178;26.578;2023-01-29T00:31:19;16.42;;;12.02;;
21233;SDS011;10774;42.178;26.578;2023-01-29T00:33:46;19.08;;;13.88;;
21233;SDS011;10774;42.178;26.578;2023-01-29T00:36:13;26.13;;;17.30;;
21233;SDS011;10774;42.178;26.578;2023-01-29T00:38:40;31.15;;;19.52;;
21233;SDS011;10774;42.178;26.578;2023-01-29T00:41:09;30.05;;;19.90;;
21233;SDS011;10774;42.178;26.578;2023-01-29T00:43:55;28.73;;;19.80;;
21233;SDS011;10774;42.178;26.578;2023-01-29T00:46:39;30.40;;;18.83;;
21233;SDS011;10774;42.178;26.578;2023-01-29T00:49:05;28.83;;;18.20;;
21233;SDS011;10774;42.178;26.578;2023-01-29T00:51:31;22.13;;;15.65;;
21233;SDS011;10774;42.178;26.578;2023-01-29T00:53:57;22.52;;;15.38;;
21233;SDS011;10774;42.178;26.578;2023-01-29T00:56:27;17.73;;;13.02;;
21233;SDS011;10774;42.178;26.578;2023-01-29T00:58:53;16.85;;;11.85;;
21233;SDS011;10774;42.178;26.578;2023-01-29T01:03:54;14.45;;;10.93;;
21233;SDS011;10774;42.178;26.578;2023-01-29T01:06:20;13.55;;;10.48;;
21233;SDS011;10774;42.178;26.578;2023-01-29T01:08:45;15.25;;;11.73;;
21233;SDS011;10774;42.178;26.578;2023-01-29T01:11:29;13.05;;;10.50;;
21233;SDS011;10774;42.178;26.578;2023-01-29T01:13:55;13.20;;;9.90;;
21233;SDS011;10774;42.178;26.578;2023-01-29T01:16:26;11.20;;;9.02;;
21233;SDS011;10774;42.178;26.578;2023-01-29T01:18:51;14.40;;;9.82;;
21233;SDS011;10774;42.178;26.578;2023-01-29T01:21:16;13.00;;;9.80;;
21233;SDS011;10774;42.178;26.578;2023-01-29T01:23:42;13.20;;;10.65;;
21233;SDS011;10774;42.178;26.578;2023-01-29T01:26:08;13.80;;;11.13;;
21233;SDS011;10774;42.178;26.578;2023-01-29T01:28:35;12.18;;;9.55;;
21233;SDS011;10774;42.178;26.578;2023-01-29T01:31:06;14.73;;;8.63;;
21233;SDS011;10774;42.178;26.578;2023-01-29T01:33:35;11.05;;;8.02;;
21233;SDS011;10774;42.178;26.578;2023-01-29T01:36:01;11.93;;;7.72;;
21233;SDS011;10774;42.178;26.578;2023-01-29T01:38:27;11.27;;;8.30;;
21233;SDS011;10774;42.178;26.578;2023-01-29T01:40:52;11.45;;;8.15;;
21233;SDS011;10774;42.178;26.578;2023-01-29T01:43:18;10.45;;;7.88;;
21233;SDS011;10774;42.178;26.578;2023-01-29T01:45:43;11.25;;;8.15;;
21233;SDS011;10774;42.178;26.578;2023-01-29T01:48:20;9.73;;;7.00;;
21233;SDS011;10774;42.178;26.578;2023-01-29T01:50:52;8.77;;;6.82;;
21233;SDS011;10774;42.178;26.578;2023-01-29T01:53:28;9.60;;;6.93;;
21233;SDS011;10774;42.178;26.578;2023-01-29T01:56:04;10.40;;;7.55;;
21233;SDS011;10774;42.178;26.578;2023-01-29T01:58:37;12.73;;;8.73;;
21233;SDS011;10774;42.178;26.578;2023-01-29T02:01:07;10.43;;;7.80;;
21233;SDS011;10774;42.178;26.578;2023-01-29T02:03:41;10.68;;;7.63;;
21233;SDS011;10774;42.178;26.578;2023-01-29T02:06:29;11.20;;;7.68;;
21233;SDS011;10774;42.178;26.578;2023-01-29T02:09:19;10.68;;;8.18;;
21233;SDS011;10774;42.178;26.578;2023-01-29T02:11:58;16.33;;;9.60;;
21233;SDS011;10774;42.178;26.578;2023-01-29T02:14:24;14.30;;;9.88;;
21233;SDS011;10774;42.178;26.578;2023-01-29T02:16:50;11.82;;;8.77;;
21233;SDS011;10774;42.178;26.578;2023-01-29T02:19:20;10.98;;;8.70;;
21233;SDS011;10774;42.178;26.578;2023-01-29T02:28:14;15.45;;;11.85;;
21233;SDS011;10774;42.178;26.578;2023-01-29T02:31:28;13.40;;;9.90;;
21233;SDS011;10774;42.178;26.578;2023-01-29T02:36:49;14.38;;;10.95;;
21233;SDS011;10774;42.178;26.578;2023-01-29T02:44:45;12.70;;;8.95;;
21233;SDS011;10774;42.178;26.578;2023-01-29T02:47:18;12.02;;;8.88;;
21233;SDS011;10774;42.178;26.578;2023-01-29T02:50:13;11.23;;;8.02;;
21233;SDS011;10774;42.178;26.578;2023-01-29T02:52:41;11.43;;;8.63;;
21233;SDS011;10774;42.178;26.578;2023-01-29T02:55:16;11.52;;;7.88;;
21233;SDS011;10774;42.178;26.578;2023-01-29T02:57:47;10.85;;;7.82;;
21233;SDS011;10774;42.178;26.578;2023-01-29T03:00:22;9.45;;;7.85;;
21233;SDS011;10774;42.178;26.578;2023-01-29T03:08:20;8.38;;;6.95;;
21233;SDS011;10774;42.178;26.578;2023-01-29T03:11:01;12.80;;;9.57;;
21233;SDS011;10774;42.178;26.578;2023-01-29T03:16:02;11.45;;;7.97;;
21233;SDS011;10774;42.178;26.578;2023-01-29T03:18:32;9.20;;;6.68;;
21233;SDS011;10774;42.178;26.578;2023-01-29T03:21:12;9.60;;;6.60;;
21233;SDS011;10774;42.178;26.578;2023-01-29T03:24:01;9.05;;;7.00;;
21233;SDS011;10774;42.178;26.578;2023-01-29T03:26:48;8.27;;;6.30;;
21233;SDS011;10774;42.178;26.578;2023-01-29T03:29:33;10.95;;;7.85;;
21233;SDS011;10774;42.178;26.578;2023-01-29T03:32:18;9.85;;;7.30;;
21233;SDS011;10774;42.178;26.578;2023-01-29T03:34:50;9.90;;;7.57;;
21233;SDS011;10774;42.178;26.578;2023-01-29T03:39:53;9.85;;;6.72;;
21233;SDS011;10774;42.178;26.578;2023-01-29T03:48:01;11.80;;;8.07;;
21233;SDS011;10774;42.178;26.578;2023-01-29T03:53:20;10.85;;;7.78;;
21233;SDS011;10774;42.178;26.578;2023-01-29T03:58:47;12.32;;;8.55;;
21233;SDS011;10774;42.178;26.578;2023-01-29T04:01:41;10.82;;;7.95;;
21233;SDS011;10774;42.178;26.578;2023-01-29T04:06:37;11.02;;;7.80;;
21233;SDS011;10774;42.178;26.578;2023-01-29T04:11:37;14.43;;;10.55;;
21233;SDS011;10774;42.178;26.578;2023-01-29T04:14:06;14.73;;;11.07;;
21233;SDS011;10774;42.178;26.578;2023-01-29T04:16:37;14.70;;;10.15;;
21233;SDS011;10774;42.178;26.578;2023-01-29T04:19:08;21.02;;;12.45;;
21233;SDS011;10774;42.178;26.578;2023-01-29T04:21:34;22.88;;;16.23;;
21233;SDS011;10774;42.178;26.578;2023-01-29T04:24:02;21.88;;;15.98;;
21233;SDS011;10774;42.178;26.578;2023-01-29T04:26:34;13.05;;;9.00;;
21233;SDS011;10774;42.178;26.578;2023-01-29T04:32:06;14.03;;;10.00;;
21233;SDS011;10774;42.178;26.578;2023-01-29T04:34:44;16.73;;;11.18;;
21233;SDS011;10774;42.178;26.578;2023-01-29T04:37:33;15.68;;;9.57;;
21233;SDS011;10774;42.178;26.578;2023-01-29T04:40:19;12.23;;;9.23;;
21233;SDS011;10774;42.178;26.578;2023-01-29T04:43:08;17.45;;;11.88;;
21233;SDS011;10774;42.178;26.578;2023-01-29T04:48:53;19.73;;;13.25;;
21233;SDS011;10774;42.178;26.578;2023-01-29T04:54:08;16.88;;;12.35;;
21233;SDS011;10774;42.178;26.578;2023-01-29T04:56:55;15.93;;;11.20;;
21233;SDS011;10774;42.178;26.578;2023-01-29T04:59:39;29.85;;;16.23;;
21233;SDS011;10774;42.178;26.578;2023-01-29T05:02:09;37.50;;;22.35;;
21233;SDS011;10774;42.178;26.578;2023-01-29T05:04:37;83.32;;;45.63;;
21233;SDS011;10774;42.178;26.578;2023-01-29T05:07:05;65.15;;;37.72;;
21233;SDS011;10774;42.178;26.578;2023-01-29T05:09:35;56.67;;;36.60;;
21233;SDS011;10774;42.178;26.578;2023-01-29T05:12:04;32.15;;;22.45;;
21233;SDS011;10774;42.178;26.578;2023-01-29T05:14:33;34.53;;;21.17;;
21233;SDS011;10774;42.178;26.578;2023-01-29T05:17:01;36.90;;;23.33;;
21233;SDS011;10774;42.178;26.578;2023-01-29T05:19:29;40.20;;;23.48;;
21233;SDS011;10774;42.178;26.578;2023-01-29T05:21:55;53.20;;;29.33;;
21233;SDS011;10774;42.178;26.578;2023-01-29T05:24:22;45.35;;;27.55;;
21233;SDS011;10774;42.178;26.578;2023-01-29T05:26:49;31.05;;;20.52;;
21233;SDS011;10774;42.178;26.578;2023-01-29T05:29:34;17.50;;;12.05;;
21233;SDS011;10774;42.178;26.578;2023-01-29T05:32:00;14.43;;;9.85;;
21233;SDS011;10774;42.178;26.578;2023-01-29T05:34:25;15.90;;;10.02;;
21233;SDS011;10774;42.178;26.578;2023-01-29T05:36:51;15.15;;;10.50;;
21233;SDS011;10774;42.178;26.578;2023-01-29T05:39:17;13.10;;;9.85;;
21233;SDS011;10774;42.178;26.578;2023-01-29T05:41:42;16.02;;;11.82;;
21233;SDS011;10774;42.178;26.578;2023-01-29T05:44:11;26.10;;;17.55;;
21233;SDS011;10774;42.178;26.578;2023-01-29T05:46:36;29.70;;;19.92;;
21233;SDS011;10774;42.178;26.578;2023-01-29T05:49:02;24.27;;;16.85;;
21233;SDS011;10774;42.178;26.578;2023-01-29T05:51:28;30.92;;;20.15;;
21233;SDS011;10774;42.178;26.578;2023-01-29T05:53:53;27.58;;;17.92;;
21233;SDS011;10774;42.178;26.578;2023-01-29T05:56:19;26.27;;;17.15;;
21233;SDS011;10774;42.178;26.578;2023-01-29T05:58:44;43.72;;;24.88;;
21233;SDS011;10774;42.178;26.578;2023-01-29T06:01:14;61.17;;;35.42;;
21233;SDS011;10774;42.178;26.578;2023-01-29T06:03:41;31.85;;;19.08;;
21233;SDS011;10774;42.178;26.578;2023-01-29T06:06:07;25.98;;;17.08;;
21233;SDS011;10774;42.178;26.578;2023-01-29T06:08:33;23.05;;;16.15;;
21233;SDS011;10774;42.178;26.578;2023-01-29T06:10:59;18.13;;;13.25;;
21233;SDS011;10774;42.178;26.578;2023-01-29T06:13:24;21.50;;;14.65;;
21233;SDS011;10774;42.178;26.578;2023-01-29T06:15:50;20.20;;;14.82;;
21233;SDS011;10774;42.178;26.578;2023-01-29T06:18:15;20.23;;;14.20;;
21233;SDS011;10774;42.178;26.578;2023-01-29T06:20:41;21.63;;;14.40;;
21233;SDS011;10774;42.178;26.578;2023-01-29T06:23:06;24.92;;;18.48;;
21233;SDS011;10774;42.178;26.578;2023-01-29T06:25:31;22.17;;;15.10;;
21233;SDS011;10774;42.178;26.578;2023-01-29T06:27:57;20.88;;;14.13;;
21233;SDS011;10774;42.178;26.578;2023-01-29T06:30:22;21.05;;;14.18;;
21233;SDS011;10774;42.178;26.578;2023-01-29T06:32:48;18.58;;;13.05;;
21233;SDS011;10774;42.178;26.578;2023-01-29T06:35:13;22.15;;;15.48;;
21233;SDS011;10774;42.178;26.578;2023-01-29T06:37:38;23.58;;;15.13;;
21233;SDS011;10774;42.178;26.578;2023-01-29T06:40:04;19.00;;;13.43;;
21233;SDS011;10774;42.178;26.578;2023-01-29T06:42:30;18.95;;;13.32;;
21233;SDS011;10774;42.178;26.578;2023-01-29T06:44:56;22.00;;;14.63;;
21233;SDS011;10774;42.178;26.578;2023-01-29T06:47:22;21.92;;;15.60;;
21233;SDS011;10774;42.178;26.578;2023-01-29T06:49:48;24.33;;;15.68;;
21233;SDS011;10774;42.178;26.578;2023-01-29T06:52:14;23.30;;;15.73;;
21233;SDS011;10774;42.178;26.578;2023-01-29T06:54:39;24.80;;;16.77;;
21233;SDS011;10774;42.178;26.578;2023-01-29T06:57:05;24.60;;;16.00;;
21233;SDS011;10774;42.178;26.578;2023-01-29T06:59:30;22.75;;;15.02;;
21233;SDS011;10774;42.178;26.578;2023-01-29T07:01:55;17.95;;;12.32;;
21233;SDS011;10774;42.178;26.578;2023-01-29T07:04:21;18.27;;;13.52;;
21233;SDS011;10774;42.178;26.578;2023-01-29T07:06:46;20.52;;;14.38;;
21233;SDS011;10774;42.178;26.578;2023-01-29T07:09:12;19.80;;;13.27;;
21233;SDS011;10774;42.178;26.578;2023-01-29T07:11:40;25.17;;;14.75;;
21233;SDS011;10774;42.178;26.578;2023-01-29T07:14:06;22.00;;;13.57;;
21233;SDS011;10774;42.178;26.578;2023-01-29T07:16:31;21.40;;;14.05;;
21233;SDS011;10774;42.178;26.578;2023-01-29T07:18:57;20.63;;;13.15;;
21233;SDS011;10774;42.178;26.578;2023-01-29T07:21:22;21.33;;;14.63;;
21233;SDS011;10774;42.178;26.578;2023-01-29T07:23:48;19.23;;;12.23;;
21233;SDS011;10774;42.178;26.578;2023-01-29T07:26:13;19.50;;;13.52;;
21233;SDS011;10774;42.178;26.578;2023-01-29T07:28:39;29.90;;;18.27;;
21233;SDS011;10774;42.178;26.578;2023-01-29T07:31:05;18.15;;;12.10;;
21233;SDS011;10774;42.178;26.578;2023-01-29T07:33:31;20.02;;;14.93;;
21233;SDS011;10774;42.178;26.578;2023-01-29T07:35:57;17.55;;;12.70;;
21233;SDS011;10774;42.178;26.578;2023-01-29T07:38:23;15.65;;;11.15;;
21233;SDS011;10774;42.178;26.578;2023-01-29T07:40:50;15.43;;;10.43;;
21233;SDS011;10774;42.178;26.578;2023-01-29T07:43:16;17.23;;;10.27;;
21233;SDS011;10774;42.178;26.578;2023-01-29T07:45:41;20.85;;;14.50;;
21233;SDS011;10774;42.178;26.578;2023-01-29T07:48:08;18.52;;;13.77;;
21233;SDS011;10774;42.178;26.578;2023-01-29T07:50:36;17.40;;;12.00;;
21233;SDS011;10774;42.178;26.578;2023-01-29T07:53:02;16.40;;;11.93;;
21233;SDS011;10774;42.178;26.578;2023-01-29T07:55:27;16.48;;;11.35;;
21233;SDS011;10774;42.178;26.578;2023-01-29T07:58:00;22.33;;;13.90;;
21233;SDS011;10774;42.178;26.578;2023-01-29T08:00:27;20.67;;;14.15;;
21233;SDS011;10774;42.178;26.578;2023-01-29T08:03:00;14.10;;;10.02;;
21233;SDS011;10774;42.178;26.578;2023-01-29T08:05:27;16.20;;;12.52;;
21233;SDS011;10774;42.178;26.578;2023-01-29T08:07:52;14.63;;;10.63;;
21233;SDS011;10774;42.178;26.578;2023-01-29T08:10:18;12.85;;;8.82;;
21233;SDS011;10774;42.178;26.578;2023-01-29T08:12:43;17.40;;;11.30;;
21233;SDS011;10774;42.178;26.578;2023-01-29T08:15:09;15.38;;;9.68;;
21233;SDS011;10774;42.178;26.578;2023-01-29T08:17:34;14.57;;;10.57;;
21233;SDS011;10774;42.178;26.578;2023-01-29T08:20:00;13.68;;;9.80;;
21233;SDS011;10774;42.178;26.578;2023-01-29T08:22:25;13.52;;;9.25;;
21233;SDS011;10774;42.178;26.578;2023-01-29T08:24:51;14.73;;;10.02;;
21233;SDS011;10774;42.178;26.578;2023-01-29T08:27:16;15.63;;;9.45;;
21233;SDS011;10774;42.178;26.578;2023-01-29T08:29:41;17.13;;;11.25;;
21233;SDS011;10774;42.178;26.578;2023-01-29T08:32:10;16.75;;;11.38;;
21233;SDS011;10774;42.178;26.578;2023-01-29T08:34:35;20.42;;;13.05;;
21233;SDS011;10774;42.178;26.578;2023-01-29T08:37:01;19.67;;;12.85;;
21233;SDS011;10774;42.178;26.578;2023-01-29T08:39:26;19.42;;;12.40;;
21233;SDS011;10774;42.178;26.578;2023-01-29T08:41:51;17.15;;;11.00;;
21233;SDS011;10774;42.178;26.578;2023-01-29T08:44:17;15.85;;;11.20;;
21233;SDS011;10774;42.178;26.578;2023-01-29T08:46:42;12.95;;;8.70;;
21233;SDS011;10774;42.178;26.578;2023-01-29T08:49:08;15.85;;;10.98;;
21233;SDS011;10774;42.178;26.578;2023-01-29T08:51:33;17.75;;;12.00;;
21233;SDS011;10774;42.178;26.578;2023-01-29T08:53:59;17.25;;;10.95;;
21233;SDS011;10774;42.178;26.578;2023-01-29T08:56:24;17.92;;;11.30;;
21233;SDS011;10774;42.178;26.578;2023-01-29T08:58:50;16.63;;;9.85;;
21233;SDS011;10774;42.178;26.578;2023-01-29T09:01:15;13.13;;;8.05;;
21233;SDS011;10774;42.178;26.578;2023-01-29T09:03:41;13.63;;;8.35;;
21233;SDS011;10774;42.178;26.578;2023-01-29T09:06:11;18.10;;;11.05;;
21233;SDS011;10774;42.178;26.578;2023-01-29T09:08:38;16.00;;;10.15;;
21233;SDS011;10774;42.178;26.578;2023-01-29T09:11:04;13.70;;;8.93;;
21233;SDS011;10774;42.178;26.578;2023-01-29T09:13:29;15.15;;;9.93;;
21233;SDS011;10774;42.178;26.578;2023-01-29T09:16:01;13.07;;;8.63;;
21233;SDS011;10774;42.178;26.578;2023-01-29T09:18:28;10.18;;;7.22;;
21233;SDS011;10774;42.178;26.578;2023-01-29T09:20:54;11.02;;;7.38;;
21233;SDS011;10774;42.178;26.578;2023-01-29T09:23:20;11.68;;;7.95;;
21233;SDS011;10774;42.178;26.578;2023-01-29T09:25:45;16.70;;;10.15;;
21233;SDS011;10774;42.178;26.578;2023-01-29T09:28:11;22.88;;;16.83;;
21233;SDS011;10774;42.178;26.578;2023-01-29T09:30:37;20.25;;;14.43;;
21233;SDS011;10774;42.178;26.578;2023-01-29T09:33:03;15.65;;;9.98;;
21233;SDS011;10774;42.178;26.578;2023-01-29T09:35:29;12.55;;;9.10;;
21233;SDS011;10774;42.178;26.578;2023-01-29T09:37:55;11.52;;;8.27;;
21233;SDS011;10774;42.178;26.578;2023-01-29T09:40:24;14.18;;;10.32;;
21233;SDS011;10774;42.178;26.578;2023-01-29T09:43:16;13.40;;;8.90;;
21233;SDS011;10774;42.178;26.578;2023-01-29T09:46:00;12.35;;;7.18;;
21233;SDS011;10774;42.178;26.578;2023-01-29T09:48:43;10.90;;;6.65;;
21233;SDS011;10774;42.178;26.578;2023-01-29T09:51:13;13.93;;;8.48;;
21233;SDS011;10774;42.178;26.578;2023-01-29T09:53:53;11.43;;;7.85;;
21233;SDS011;10774;42.178;26.578;2023-01-29T09:56:30;11.48;;;7.68;;
21233;SDS011;10774;42.178;26.578;2023-01-29T09:58:57;10.65;;;7.68;;
21233;SDS011;10774;42.178;26.578;2023-01-29T10:07:34;12.80;;;9.07;;
21233;SDS011;10774;42.178;26.578;2023-01-29T10:12:59;18.17;;;12.82;;
21233;SDS011;10774;42.178;26.578;2023-01-29T10:20:58;19.83;;;12.32;;
21233;SDS011;10774;42.178;26.578;2023-01-29T10:23:33;14.50;;;10.10;;
21233;SDS011;10774;42.178;26.578;2023-01-29T10:26:09;13.85;;;8.38;;
21233;SDS011;10774;42.178;26.578;2023-01-29T10:28:43;34.95;;;18.65;;
21233;SDS011;10774;42.178;26.578;2023-01-29T10:33:49;121.80;;;53.65;;
21233;SDS011;10774;42.178;26.578;2023-01-29T10:37:00;20.38;;;11.32;;
21233;SDS011;10774;42.178;26.578;2023-01-29T10:39:20;15.00;;;9.13;;
21233;SDS011;10774;42.178;26.578;2023-01-29T10:41:50;13.82;;;8.45;;
21233;SDS011;10774;42.178;26.578;2023-01-29T10:53:52;11.55;;;7.20;;
21233;SDS011;10774;42.178;26.578;2023-01-29T10:59:03;16.00;;;10.27;;
21233;SDS011;10774;42.178;26.578;2023-01-29T11:01:35;22.23;;;13.68;;
21233;SDS011;10774;42.178;26.578;2023-01-29T11:04:01;34.55;;;20.77;;
21233;SDS011;10774;42.178;26.578;2023-01-29T11:06:32;33.25;;;21.52;;
21233;SDS011;10774;42.178;26.578;2023-01-29T11:11:32;16.02;;;11.70;;
21233;SDS011;10774;42.178;26.578;2023-01-29T11:14:04;13.45;;;8.40;;
21233;SDS011;10774;42.178;26.578;2023-01-29T11:16:44;12.30;;;8.75;;
21233;SDS011;10774;42.178;26.578;2023-01-29T11:19:11;19.55;;;11.10;;
21233;SDS011;10774;42.178;26.578;2023-01-29T11:21:56;13.68;;;10.32;;
21233;SDS011;10774;42.178;26.578;2023-01-29T11:24:23;14.13;;;8.90;;
21233;SDS011;10774;42.178;26.578;2023-01-29T11:26:49;16.50;;;11.43;;
21233;SDS011;10774;42.178;26.578;2023-01-29T11:29:28;14.52;;;9.02;;
21233;SDS011;10774;42.178;26.578;2023-01-29T11:31:57;34.25;;;19.83;;
21233;SDS011;10774;42.178;26.578;2023-01-29T11:34:24;34.03;;;21.00;;
21233;SDS011;10774;42.178;26.578;2023-01-29T11:36:58;16.50;;;10.98;;
21233;SDS011;10774;42.178;26.578;2023-01-29T11:39:26;24.05;;;14.65;;
21233;SDS011;10774;42.178;26.578;2023-01-29T11:41:59;25.17;;;12.68;;
21233;SDS011;10774;42.178;26.578;2023-01-29T11:46:58;13.90;;;10.40;;
21233;SDS011;10774;42.178;26.578;2023-01-29T11:49:52;21.58;;;11.98;;
21233;SDS011;10774;42.178;26.578;2023-01-29T11:52:18;31.80;;;11.68;;
21233;SDS011;10774;42.178;26.578;2023-01-29T11:54:51;12.82;;;9.40;;
21233;SDS011;10774;42.178;26.578;2023-01-29T11:57:29;22.55;;;12.45;;
21233;SDS011;10774;42.178;26.578;2023-01-29T12:00:39;20.42;;;12.05;;
21233;SDS011;10774;42.178;26.578;2023-01-29T12:02:57;20.23;;;13.20;;
21233;SDS011;10774;42.178;26.578;2023-01-29T12:05:29;14.40;;;9.63;;
21233;SDS011;10774;42.178;26.578;2023-01-29T12:07:55;25.00;;;14.50;;
21233;SDS011;10774;42.178;26.578;2023-01-29T12:15:38;12.98;;;8.40;;
21233;SDS011;10774;42.178;26.578;2023-01-29T12:18:22;16.42;;;10.45;;
21233;SDS011;10774;42.178;26.578;2023-01-29T12:21:04;17.23;;;11.75;;
21233;SDS011;10774;42.178;26.578;2023-01-29T12:35:11;15.40;;;11.43;;
21233;SDS011;10774;42.178;26.578;2023-01-29T12:38:03;14.75;;;9.38;;
21233;SDS011;10774;42.178;26.578;2023-01-29T12:40:39;15.18;;;9.27;;
21233;SDS011;10774;42.178;26.578;2023-01-29T12:43:18;13.35;;;8.90;;
21233;SDS011;10774;42.178;26.578;2023-01-29T12:45:51;22.30;;;14.07;;
21233;SDS011;10774;42.178;26.578;2023-01-29T12:48:23;12.23;;;8.30;;
21233;SDS011;10774;42.178;26.578;2023-01-29T12:51:07;13.88;;;9.10;;
21233;SDS011;10774;42.178;26.578;2023-01-29T12:53:40;13.43;;;9.63;;
21233;SDS011;10774;42.178;26.578;2023-01-29T12:56:21;19.48;;;11.13;;
21233;SDS011;10774;42.178;26.578;2023-01-29T12:58:54;14.05;;;10.05;;
21233;SDS011;10774;42.178;26.578;2023-01-29T13:01:33;19.20;;;13.15;;
21233;SDS011;10774;42.178;26.578;2023-01-29T13:04:04;15.98;;;10.65;;
21233;SDS011;10774;42.178;26.578;2023-01-29T13:06:37;24.27;;;16.88;;
21233;SDS011;10774;42.178;26.578;2023-01-29T13:09:28;28.73;;;18.92;;
21233;SDS011;10774;42.178;26.578;2023-01-29T13:11:55;35.53;;;19.95;;
21233;SDS011;10774;42.178;26.578;2023-01-29T13:14:27;26.05;;;16.35;;
21233;SDS011;10774;42.178;26.578;2023-01-29T13:19:45;37.22;;;22.65;;
21233;SDS011;10774;42.178;26.578;2023-01-29T13:22:21;29.58;;;18.60;;
21233;SDS011;10774;42.178;26.578;2023-01-29T13:24:50;46.20;;;26.38;;
21233;SDS011;10774;42.178;26.578;2023-01-29T13:27:19;39.15;;;23.70;;
21233;SDS011;10774;42.178;26.578;2023-01-29T13:29:47;25.27;;;15.85;;
21233;SDS011;10774;42.178;26.578;2023-01-29T13:32:18;30.17;;;18.27;;
21233;SDS011;10774;42.178;26.578;2023-01-29T13:34:46;27.77;;;17.95;;
21233;SDS011;10774;42.178;26.578;2023-01-29T13:37:32;43.28;;;23.02;;
21233;SDS011;10774;42.178;26.578;2023-01-29T13:39:59;50.10;;;25.98;;
21233;SDS011;10774;42.178;26.578;2023-01-29T13:42:41;33.85;;;21.45;;
21233;SDS011;10774;42.178;26.578;2023-01-29T13:45:21;38.65;;;25.33;;
21233;SDS011;10774;42.178;26.578;2023-01-29T13:48:07;38.50;;;23.60;;
21233;SDS011;10774;42.178;26.578;2023-01-29T13:50:37;14.93;;;9.88;;
21233;SDS011;10774;42.178;26.578;2023-01-29T13:53:06;26.40;;;16.63;;
21233;SDS011;10774;42.178;26.578;2023-01-29T13:55:36;22.42;;;15.50;;
21233;SDS011;10774;42.178;26.578;2023-01-29T13:58:04;18.20;;;13.10;;
21233;SDS011;10774;42.178;26.578;2023-01-29T14:10:41;19.60;;;14.70;;
21233;SDS011;10774;42.178;26.578;2023-01-29T14:15:42;23.33;;;16.20;;
21233;SDS011;10774;42.178;26.578;2023-01-29T14:18:16;27.50;;;17.23;;
21233;SDS011;10774;42.178;26.578;2023-01-29T14:25:55;22.42;;;14.48;;
21233;SDS011;10774;42.178;26.578;2023-01-29T14:28:25;25.85;;;16.10;;
21233;SDS011;10774;42.178;26.578;2023-01-29T14:30:54;23.42;;;15.85;;
21233;SDS011;10774;42.178;26.578;2023-01-29T14:33:37;32.60;;;21.52;;
21233;SDS011;10774;42.178;26.578;2023-01-29T14:36:09;45.45;;;29.65;;
21233;SDS011;10774;42.178;26.578;2023-01-29T14:38:37;41.17;;;26.80;;
21233;SDS011;10774;42.178;26.578;2023-01-29T14:41:06;56.70;;;35.58;;
21233;SDS011;10774;42.178;26.578;2023-01-29T14:43:40;47.30;;;30.17;;
21233;SDS011;10774;42.178;26.578;2023-01-29T14:46:48;36.20;;;26.23;;
21233;SDS011;10774;42.178;26.578;2023-01-29T14:49:00;32.67;;;22.40;;
21233;SDS011;10774;42.178;26.578;2023-01-29T14:51:26;42.50;;;28.00;;
21233;SDS011;10774;42.178;26.578;2023-01-29T14:54:03;34.90;;;23.77;;
21233;SDS011;10774;42.178;26.578;2023-01-29T14:56:57;35.15;;;24.27;;
21233;SDS011;10774;42.178;26.578;2023-01-29T14:59:32;35.67;;;23.48;;
21233;SDS011;10774;42.178;26.578;2023-01-29T15:02:18;38.78;;;23.67;;
21233;SDS011;10774;42.178;26.578;2023-01-29T15:04:49;42.70;;;24.15;;
21233;SDS011;10774;42.178;26.578;2023-01-29T15:07:28;27.00;;;17.90;;
21233;SDS011;10774;42.178;26.578;2023-01-29T15:10:05;28.90;;;21.20;;
21233;SDS011;10774;42.178;26.578;2023-01-29T15:18:13;48.97;;;30.60;;
21233;SDS011;10774;42.178;26.578;2023-01-29T15:20:43;47.38;;;28.88;;
21233;SDS011;10774;42.178;26.578;2023-01-29T15:25:54;105.38;;;56.28;;
21233;SDS011;10774;42.178;26.578;2023-01-29T15:28:21;69.80;;;38.15;;
21233;SDS011;10774;42.178;26.578;2023-01-29T15:30:54;51.53;;;30.27;;
21233;SDS011;10774;42.178;26.578;2023-01-29T15:33:21;50.95;;;30.13;;
21233;SDS011;10774;42.178;26.578;2023-01-29T15:35:47;63.88;;;35.60;;
21233;SDS011;10774;42.178;26.578;2023-01-29T15:38:18;45.25;;;28.52;;
21233;SDS011;10774;42.178;26.578;2023-01-29T15:40:58;50.92;;;31.90;;
21233;SDS011;10774;42.178;26.578;2023-01-29T15:48:46;47.33;;;29.77;;
21233;SDS011;10774;42.178;26.578;2023-01-29T15:51:16;33.45;;;22.23;;
21233;SDS011;10774;42.178;26.578;2023-01-29T15:53:57;30.88;;;20.58;;
21233;SDS011;10774;42.178;26.578;2023-01-29T15:59:00;42.00;;;27.73;;
21233;SDS011;10774;42.178;26.578;2023-01-29T16:01:28;39.60;;;25.35;;
21233;SDS011;10774;42.178;26.578;2023-01-29T16:03:55;42.17;;;29.45;;
21233;SDS011;10774;42.178;26.578;2023-01-29T16:06:25;66.75;;;41.78;;
21233;SDS011;10774;42.178;26.578;2023-01-29T16:08:52;56.53;;;36.38;;
21233;SDS011;10774;42.178;26.578;2023-01-29T16:11:18;50.65;;;33.85;;
21233;SDS011;10774;42.178;26.578;2023-01-29T16:13:45;43.63;;;29.40;;
21233;SDS011;10774;42.178;26.578;2023-01-29T16:18:39;46.88;;;30.52;;
21233;SDS011;10774;42.178;26.578;2023-01-29T16:21:25;41.22;;;26.27;;
21233;SDS011;10774;42.178;26.578;2023-01-29T16:24:16;32.72;;;22.98;;
21233;SDS011;10774;42.178;26.578;2023-01-29T16:26:46;35.08;;;24.92;;
21233;SDS011;10774;42.178;26.578;2023-01-29T16:29:14;35.75;;;26.17;;
21233;SDS011;10774;42.178;26.578;2023-01-29T16:31:43;45.72;;;30.45;;
21233;SDS011;10774;42.178;26.578;2023-01-29T16:34:23;50.45;;;31.60;;
21233;SDS011;10774;42.178;26.578;2023-01-29T16:36:48;66.38;;;41.00;;
21233;SDS011;10774;42.178;26.578;2023-01-29T16:39:16;78.53;;;46.22;;
21233;SDS011;10774;42.178;26.578;2023-01-29T16:41:45;93.22;;;49.15;;
21233;SDS011;10774;42.178;26.578;2023-01-29T16:45:05;76.68;;;42.72;;
21233;SDS011;10774;42.178;26.578;2023-01-29T16:47:47;88.28;;;52.80;;
21233;SDS011;10774;42.178;26.578;2023-01-29T16:50:34;85.22;;;49.90;;
21233;SDS011;10774;42.178;26.578;2023-01-29T16:53:01;71.82;;;41.95;;
21233;SDS011;10774;42.178;26.578;2023-01-29T16:55:36;95.45;;;49.70;;
21233;SDS011;10774;42.178;26.578;2023-01-29T16:58:18;99.45;;;50.80;;
21233;SDS011;10774;42.178;26.578;2023-01-29T17:00:46;52.63;;;32.42;;